createdAt,value
2023-03-20T00:02:06.922Z,98356.53
2023-03-20T00:04:34.285Z,98352.13
2023-03-20T00:07:01.766Z,98348.94
2023-03-20T00:09:28.845Z,98346.63
2023-03-20T00:11:56.466Z,98337.25
2023-03-20T00:14:25.073Z,98337.03
2023-03-20T00:16:52.686Z,98336.72
2023-03-20T00:19:26.060Z,98334.72
2023-03-20T00:21:54.448Z,98335.19
2023-03-20T00:24:22.425Z,98335.47
2023-03-20T00:26:51.557Z,98333.28
2023-03-20T00:29:26.415Z,98331.22
2023-03-20T00:31:54.925Z,98330.75
2023-03-20T00:34:24.072Z,98324.94
2023-03-20T00:36:51.879Z,98328.50
2023-03-20T00:39:19.250Z,98318.50
2023-03-20T00:42:01.017Z,98319.09
2023-03-20T00:44:34.022Z,98306.38
2023-03-20T00:47:11.537Z,98317.63
2023-03-20T00:49:38.646Z,98318.19
2023-03-20T00:52:06.776Z,98316.19
2023-03-20T00:54:33.775Z,98320.56
2023-03-20T00:57:04.277Z,98321.72
2023-03-20T00:59:36.320Z,98328.25
2023-03-20T01:02:04.357Z,98327.13
2023-03-20T01:04:39.528Z,98321.41
2023-03-20T01:07:10.913Z,98320.75
2023-03-20T01:09:37.915Z,98308.25
2023-03-20T01:12:05.835Z,98316.66
2023-03-20T01:14:32.966Z,98304.44
2023-03-20T01:17:00.047Z,98308.56
2023-03-20T01:19:27.133Z,98297.72
2023-03-20T01:21:54.274Z,98301.16
2023-03-20T01:24:21.446Z,98303.25
2023-03-20T01:26:49.396Z,98303.22
2023-03-20T01:29:27.775Z,98297.78
2023-03-20T01:31:55.467Z,98300.94
2023-03-20T01:34:25.533Z,98296.78
2023-03-20T01:36:54.790Z,98289.47
2023-03-20T01:39:24.643Z,98291.31
2023-03-20T01:41:53.216Z,98283.69
2023-03-20T01:44:27.350Z,98278.84
2023-03-20T01:46:58.379Z,98286.78
2023-03-20T01:49:26.533Z,98283.59
2023-03-20T01:51:57.203Z,98281.69
2023-03-20T01:55:35.564Z,98292.28
2023-03-20T01:58:07.917Z,98285.22
2023-03-20T02:00:36.866Z,98274.41
2023-03-20T02:03:08.258Z,98277.19
2023-03-20T02:06:01.367Z,98272.56
2023-03-20T02:08:50.818Z,98272.78
2023-03-20T02:11:20.592Z,98279.69
2023-03-20T02:13:48.101Z,98265.34
2023-03-20T02:16:16.959Z,98272.94
2023-03-20T02:18:56.480Z,98268.53
2023-03-20T02:21:37.960Z,98265.69
2023-03-20T02:24:24.210Z,98260.28
2023-03-20T02:27:04.030Z,98260.03
2023-03-20T02:30:15.574Z,98264.69
2023-03-20T02:33:01.292Z,98257.06
2023-03-20T02:36:00.037Z,98248.59
2023-03-20T02:39:05.604Z,98255.19
2023-03-20T02:41:48.118Z,98253.66
2023-03-20T02:44:45.545Z,98255.84
2023-03-20T02:47:31.912Z,98259.03
2023-03-20T02:50:17.012Z,98249.97
2023-03-20T02:53:10.356Z,98240.53
2023-03-20T02:56:11.746Z,98245.72
2023-03-20T02:58:55.537Z,98238.63
2023-03-20T03:01:52.666Z,98238.31
2023-03-20T03:04:26.360Z,98233.00
2023-03-20T03:06:56.124Z,98229.44
2023-03-20T03:09:30.733Z,98228.19
2023-03-20T03:12:10.754Z,98217.78
2023-03-20T03:14:53.801Z,98227.13
2023-03-20T03:17:24.678Z,98239.22
2023-03-20T03:19:56.110Z,98242.53
2023-03-20T03:22:24.579Z,98227.38
2023-03-20T03:24:54.104Z,98236.53
2023-03-20T03:27:21.460Z,98237.78
2023-03-20T03:29:56.745Z,98230.09
2023-03-20T03:32:29.715Z,98240.09
2023-03-20T03:34:57.831Z,98234.59
2023-03-20T03:38:04.082Z,98242.19
2023-03-20T03:40:51.896Z,98243.88
2023-03-20T03:43:21.553Z,98242.81
2023-03-20T03:45:55.159Z,98243.06
2023-03-20T03:48:26.888Z,98249.06
2023-03-20T03:50:57.596Z,98233.94
2023-03-20T03:53:36.821Z,98243.91
2023-03-20T03:56:08.999Z,98247.88
2023-03-20T03:59:09.171Z,98249.03
2023-03-20T04:01:38.668Z,98255.41
2023-03-20T04:04:09.800Z,98246.63
2023-03-20T04:06:37.632Z,98249.41
2023-03-20T04:09:06.608Z,98249.88
2023-03-20T04:11:35.874Z,98246.34
2023-03-20T04:14:03.101Z,98232.00
2023-03-20T04:16:31.251Z,98242.41
2023-03-20T04:18:58.573Z,98250.22
2023-03-20T04:21:25.979Z,98252.47
2023-03-20T04:23:52.957Z,98255.28
2023-03-20T04:26:22.620Z,98255.06
2023-03-20T04:28:50.517Z,98254.34
2023-03-20T04:31:41.890Z,98238.66
2023-03-20T04:34:32.228Z,98254.88
2023-03-20T04:37:25.392Z,98251.22
2023-03-20T04:40:06.354Z,98258.59
2023-03-20T04:42:33.730Z,98258.00
2023-03-20T04:45:05.027Z,98264.31
2023-03-20T04:47:32.181Z,98258.53
2023-03-20T04:49:59.229Z,98261.75
2023-03-20T04:52:26.389Z,98255.31
2023-03-20T04:54:53.368Z,98257.19
2023-03-20T04:57:20.446Z,98259.91
2023-03-20T04:59:47.755Z,98258.31
2023-03-20T05:02:15.267Z,98257.28
2023-03-20T05:04:43.110Z,98262.63
2023-03-20T05:07:10.966Z,98273.03
2023-03-20T05:09:50.786Z,98266.94
2023-03-20T05:12:18.971Z,98270.09
2023-03-20T05:14:46.010Z,98278.13
2023-03-20T05:17:36.583Z,98276.91
2023-03-20T05:20:12.576Z,98273.13
2023-03-20T05:23:06.434Z,98273.16
2023-03-20T05:25:53.958Z,98272.94
2023-03-20T05:28:41.400Z,98272.00
2023-03-20T05:35:43.226Z,98252.72
2023-03-20T05:38:28.985Z,98265.34
2023-03-20T05:41:14.213Z,98264.41
2023-03-20T05:44:01.581Z,98268.97
2023-03-20T05:46:51.681Z,98275.34
2023-03-20T05:49:34.917Z,98271.81
2023-03-20T05:52:04.958Z,98274.00
2023-03-20T05:54:58.071Z,98276.59
2023-03-20T05:57:39.380Z,98269.50
2023-03-20T06:00:39.199Z,98270.97
2023-03-20T06:03:32.245Z,98279.84
2023-03-20T06:06:10.287Z,98277.78
2023-03-20T06:08:37.262Z,98276.19
2023-03-20T06:11:05.911Z,98277.22
2023-03-20T06:13:36.799Z,98282.97
2023-03-20T06:16:05.054Z,98279.41
2023-03-20T06:18:32.270Z,98272.00
2023-03-20T06:20:59.461Z,98274.63
2023-03-20T06:23:29.047Z,98283.19
2023-03-20T06:25:56.390Z,98277.44
2023-03-20T06:28:23.653Z,98275.25
2023-03-20T06:30:58.934Z,98277.56
2023-03-20T06:33:26.592Z,98275.25
2023-03-20T06:36:01.277Z,98284.00
2023-03-20T06:38:31.005Z,98281.59
2023-03-20T06:41:00.188Z,98274.00
2023-03-20T06:43:28.516Z,98276.19
2023-03-20T06:45:55.546Z,98280.69
2023-03-20T06:48:26.246Z,98282.84
2023-03-20T06:50:53.959Z,98279.38
2023-03-20T06:53:24.676Z,98291.38
2023-03-20T06:55:58.889Z,98286.88
2023-03-20T06:58:25.991Z,98287.09
2023-03-20T07:00:54.798Z,98285.19
2023-03-20T07:03:22.110Z,98287.38
2023-03-20T07:05:51.022Z,98287.88
2023-03-20T07:08:19.311Z,98295.91
2023-03-20T07:10:47.019Z,98289.91
2023-03-20T07:13:15.279Z,98300.75
2023-03-20T07:15:57.454Z,98301.81
2023-03-20T07:18:30.268Z,98295.44
2023-03-20T07:21:04.247Z,98305.13
2023-03-20T07:23:34.627Z,98298.25
2023-03-20T07:26:03.588Z,98292.75
2023-03-20T07:28:31.164Z,98286.25
2023-03-20T07:31:20.770Z,98283.94
2023-03-20T07:33:49.844Z,98291.19
2023-03-20T07:36:18.025Z,98301.41
2023-03-20T07:38:45.477Z,98293.03
2023-03-20T07:41:13.198Z,98288.09
2023-03-20T07:43:45.752Z,98292.16
2023-03-20T07:46:15.581Z,98294.13
2023-03-20T07:48:42.752Z,98291.22
2023-03-20T07:51:09.875Z,98294.84
2023-03-20T07:53:37.192Z,98299.28
2023-03-20T07:56:04.857Z,98290.00
2023-03-20T07:58:32.086Z,98294.16
2023-03-20T08:01:03.198Z,98286.88
2023-03-20T08:03:30.614Z,98288.72
2023-03-20T08:05:57.891Z,98286.69
2023-03-20T08:08:24.892Z,98297.56
2023-03-20T08:10:51.881Z,98299.06
2023-03-20T08:13:19.014Z,98299.75
2023-03-20T08:15:47.393Z,98281.78
2023-03-20T08:18:14.497Z,98290.22
2023-03-20T08:20:41.850Z,98298.91
2023-03-20T08:23:08.907Z,98306.97
2023-03-20T08:25:36.185Z,98303.66
2023-03-20T08:28:04.225Z,98304.31
2023-03-20T08:30:32.074Z,98296.34
2023-03-20T08:32:59.283Z,98306.63
2023-03-20T08:35:33.372Z,98305.16
2023-03-20T08:38:01.725Z,98309.13
2023-03-20T08:41:01.221Z,98308.75
2023-03-20T08:43:28.349Z,98310.94
2023-03-20T08:45:55.819Z,98311.97
2023-03-20T08:48:23.091Z,98311.28
2023-03-20T08:50:50.280Z,98310.88
2023-03-20T08:53:17.316Z,98304.72
2023-03-20T08:55:52.253Z,98303.81
2023-03-20T08:58:20.575Z,98301.16
2023-03-20T09:00:47.830Z,98307.50
2023-03-20T09:03:16.772Z,98308.44
2023-03-20T09:05:45.610Z,98301.19
2023-03-20T09:08:13.379Z,98299.44
2023-03-20T09:10:43.020Z,98289.63
2023-03-20T09:13:26.066Z,98291.53
2023-03-20T09:15:55.287Z,98287.94
2023-03-20T09:18:23.469Z,98288.44
2023-03-20T09:20:51.082Z,98285.81
2023-03-20T09:23:18.699Z,98294.97
2023-03-20T09:25:47.159Z,98279.13
2023-03-20T09:28:14.367Z,98285.78
2023-03-20T09:30:43.646Z,98281.63
2023-03-20T09:33:11.579Z,98290.50
2023-03-20T09:35:38.995Z,98281.38
2023-03-20T09:38:06.868Z,98289.16
2023-03-20T09:40:40.061Z,98283.50
2023-03-20T09:43:31.817Z,98279.09
2023-03-20T10:17:20.433Z,98244.13
2023-03-20T10:20:09.856Z,98241.16
2023-03-20T10:22:42.189Z,98245.44
2023-03-20T10:25:24.306Z,98243.34
2023-03-20T10:28:04.484Z,98240.03
2023-03-20T10:31:06.297Z,98231.88
2023-03-20T10:33:51.878Z,98235.38
2023-03-20T10:36:36.089Z,98235.03
2023-03-20T10:39:17.126Z,98227.47
2023-03-20T10:41:53.319Z,98238.56
2023-03-20T10:44:39.083Z,98228.41
2023-03-20T10:47:12.173Z,98227.59
2023-03-20T10:49:46.600Z,98220.69
2023-03-20T10:52:36.258Z,98216.81
2023-03-20T10:55:37.639Z,98216.03
2023-03-20T10:58:26.767Z,98209.03
2023-03-20T11:00:56.358Z,98210.50
2023-03-20T11:03:28.025Z,98202.69
2023-03-20T11:06:10.656Z,98199.56
2023-03-20T11:08:43.226Z,98203.44
2023-03-20T11:11:10.894Z,98203.53
2023-03-20T11:13:43.744Z,98193.69
2023-03-20T11:16:23.113Z,98194.69
2023-03-20T11:18:52.572Z,98203.44
2023-03-20T11:21:28.568Z,98202.31
2023-03-20T11:23:56.197Z,98184.13
2023-03-20T11:26:40.781Z,98193.09
2023-03-20T11:29:17.644Z,98179.97
2023-03-20T11:31:44.805Z,98181.56
2023-03-20T11:34:14.791Z,98170.69
2023-03-20T11:37:21.129Z,98176.13
2023-03-20T11:39:59.620Z,98175.22
2023-03-20T11:42:30.503Z,98174.59
2023-03-20T11:45:00.127Z,98171.56
2023-03-20T11:47:29.317Z,98167.13
2023-03-20T11:49:59.799Z,98166.19
2023-03-20T11:53:35.835Z,98159.66
2023-03-20T11:56:13.499Z,98164.66
2023-03-20T11:59:10.573Z,98160.03
2023-03-20T12:01:58.303Z,98160.94
2023-03-20T12:04:34.122Z,98152.81
2023-03-20T12:07:13.264Z,98152.31
2023-03-20T12:09:42.783Z,98139.56
2023-03-20T12:12:19.187Z,98142.06
2023-03-20T12:14:56.034Z,98136.97
2023-03-20T12:17:54.577Z,98127.69
2023-03-20T12:20:37.095Z,98136.53
2023-03-20T12:23:31.399Z,98134.31
2023-03-20T12:26:04.365Z,98136.59
2023-03-20T12:28:46.497Z,98132.41
2023-03-20T12:31:30.805Z,98128.28
2023-03-20T12:34:35.827Z,98124.00
2023-03-20T12:37:03.021Z,98116.03
2023-03-20T12:39:41.622Z,98120.34
2023-03-20T12:42:11.620Z,98115.31
2023-03-20T12:45:01.489Z,98108.66
2023-03-20T12:47:53.473Z,98114.88
2023-03-20T12:50:23.330Z,98111.47
2023-03-20T12:53:59.967Z,98105.19
2023-03-20T12:56:41.703Z,98103.16
2023-03-20T12:59:08.652Z,98103.94
2023-03-20T13:02:08.090Z,98103.44
2023-03-20T13:05:07.177Z,98098.25
2023-03-20T13:08:02.010Z,98083.19
2023-03-20T13:10:41.790Z,98089.06
2023-03-20T13:13:56.122Z,98084.44
2023-03-20T13:16:33.619Z,98090.56
2023-03-20T13:19:08.196Z,98090.59
2023-03-20T13:21:46.022Z,98085.19
2023-03-20T13:25:22.590Z,98082.81
2023-03-20T13:28:15.863Z,98091.00
2023-03-20T13:31:06.823Z,98087.81
2023-03-20T13:33:39.735Z,98087.22
2023-03-20T13:36:37.240Z,98080.44
2023-03-20T13:39:18.345Z,98079.69
2023-03-20T13:41:48.289Z,98073.94
2023-03-20T13:44:21.076Z,98087.19
2023-03-20T13:46:52.315Z,98078.22
2023-03-20T13:49:34.134Z,98082.22
2023-03-20T13:52:19.648Z,98077.13
2023-03-20T13:55:19.961Z,98079.06
2023-03-20T13:58:03.940Z,98070.34
2023-03-20T14:01:03.088Z,98063.16
2023-03-20T14:03:37.231Z,98070.63
2023-03-20T14:06:50.166Z,98071.03
2023-03-20T14:09:31.233Z,98077.13
2023-03-20T14:12:18.352Z,98080.81
2023-03-20T14:14:55.729Z,98075.81
2023-03-20T14:17:27.593Z,98068.59
2023-03-20T14:19:56.665Z,98064.06
2023-03-20T14:22:35.673Z,98066.69
2023-03-20T14:25:08.879Z,98060.47
2023-03-20T14:27:53.267Z,98062.16
2023-03-20T14:30:32.509Z,98061.75
2023-03-20T14:33:06.346Z,98059.22
2023-03-20T14:35:38.775Z,98065.22
2023-03-20T14:38:29.898Z,98057.00
2023-03-20T14:41:11.962Z,98058.06
2023-03-20T14:43:51.217Z,98055.00
2023-03-20T14:46:31.694Z,98056.31
2023-03-20T14:50:09.086Z,98059.47
2023-03-20T14:52:44.958Z,98055.09
2023-03-20T14:55:30.851Z,98056.38
2023-03-20T14:58:03.253Z,98049.38
2023-03-20T15:00:36.439Z,98055.56
2023-03-20T15:03:14.131Z,98053.84
2023-03-20T15:05:42.388Z,98053.22
2023-03-20T15:08:24.917Z,98044.69
2023-03-20T15:10:56.701Z,98054.78
2023-03-20T15:13:25.937Z,98052.97
2023-03-20T15:16:07.130Z,98044.31
2023-03-20T15:18:51.057Z,98060.38
2023-03-20T15:22:26.809Z,98055.78
2023-03-20T15:24:56.884Z,98063.03
2023-03-20T15:27:29.821Z,98059.66
2023-03-20T15:30:00.431Z,98065.41
2023-03-20T15:32:27.478Z,98070.91
2023-03-20T15:34:54.716Z,98076.09
2023-03-20T15:37:25.086Z,98068.00
2023-03-20T15:39:56.874Z,98063.13
2023-03-20T15:42:25.651Z,98067.34
2023-03-20T15:45:22.113Z,98067.19
2023-03-20T15:47:49.081Z,98071.66
2023-03-20T15:50:16.711Z,98071.66
2023-03-20T15:52:53.197Z,98080.06
2023-03-20T15:55:23.266Z,98079.50
2023-03-20T15:57:54.119Z,98069.03
2023-03-20T16:00:44.244Z,98066.47
2023-03-20T16:03:17.110Z,98070.34
2023-03-20T16:05:45.678Z,98071.56
2023-03-20T16:08:24.337Z,98064.94
2023-03-20T16:10:57.386Z,98065.38
2023-03-20T16:13:25.440Z,98059.72
2023-03-20T16:15:54.600Z,98061.28
2023-03-20T16:18:22.233Z,98060.34
2023-03-20T16:20:58.111Z,98063.97
2023-03-20T16:23:38.730Z,98071.59
2023-03-20T16:26:08.958Z,98061.16
2023-03-20T16:28:38.052Z,98062.72
2023-03-20T16:31:29.631Z,98063.34
2023-03-20T16:34:07.950Z,98073.66
2023-03-20T16:36:37.519Z,98065.59
2023-03-20T16:39:04.454Z,98066.06
2023-03-20T16:41:45.081Z,98065.25
2023-03-20T16:44:18.255Z,98072.28
2023-03-20T16:47:01.631Z,98073.94
2023-03-20T16:49:34.803Z,98076.22
2023-03-20T16:52:05.343Z,98072.13
2023-03-20T16:54:36.542Z,98074.13
2023-03-20T16:57:09.621Z,98080.47
2023-03-20T17:00:20.210Z,98080.69
2023-03-20T17:03:13.534Z,98074.44
2023-03-20T17:06:04.626Z,98083.91
2023-03-20T17:08:42.030Z,98081.06
2023-03-20T17:11:33.629Z,98079.75
2023-03-20T17:14:01.399Z,98087.84
2023-03-20T17:16:28.989Z,98082.88
2023-03-20T17:19:01.578Z,98083.69
2023-03-20T17:21:30.054Z,98078.88
2023-03-20T17:23:57.573Z,98076.66
2023-03-20T17:26:24.809Z,98077.50
2023-03-20T17:28:51.826Z,98077.88
2023-03-20T17:31:19.501Z,98076.34
2023-03-20T17:33:46.941Z,98069.75
2023-03-20T17:36:25.634Z,98073.91
2023-03-20T17:38:53.396Z,98066.41
2023-03-20T17:41:21.268Z,98066.78
2023-03-20T17:44:20.471Z,98073.25
2023-03-20T17:46:57.701Z,98068.94
2023-03-20T17:49:27.751Z,98075.38
2023-03-20T17:51:55.948Z,98067.72
2023-03-20T17:54:22.997Z,98071.06
2023-03-20T17:56:50.046Z,98067.06
2023-03-20T17:59:17.089Z,98077.38
2023-03-20T18:05:39.404Z,98068.91
2023-03-20T18:08:14.124Z,98066.78
2023-03-20T18:10:41.975Z,98059.94
2023-03-20T18:13:09.124Z,98060.69
2023-03-20T18:15:38.329Z,98075.47
2023-03-20T18:18:06.137Z,98065.63
2023-03-20T18:20:35.088Z,98066.78
2023-03-20T18:23:02.308Z,98066.69
2023-03-20T18:25:30.280Z,98070.88
2023-03-20T18:27:59.298Z,98070.63
2023-03-20T18:30:38.830Z,98064.19
2023-03-20T18:33:06.408Z,98062.03
2023-03-20T18:35:34.592Z,98070.34
2023-03-20T18:38:02.143Z,98069.41
2023-03-20T18:40:38.399Z,98066.72
2023-03-20T18:43:06.016Z,98069.66
2023-03-20T18:45:33.035Z,98072.97
2023-03-20T18:48:03.834Z,98070.69
2023-03-20T18:50:33.976Z,98074.63
2023-03-20T18:53:04.328Z,98075.56
2023-03-20T18:55:32.230Z,98071.44
2023-03-20T18:57:59.641Z,98074.91
2023-03-20T19:00:36.130Z,98080.81
2023-03-20T19:03:04.136Z,98071.78
2023-03-20T19:05:31.538Z,98070.03
2023-03-20T19:08:00.139Z,98072.63
2023-03-20T19:10:39.501Z,98072.78
2023-03-20T19:13:07.798Z,98073.25
2023-03-20T19:15:37.427Z,98069.81
2023-03-20T19:18:15.583Z,98067.25
2023-03-20T19:20:48.255Z,98066.31
2023-03-20T19:23:17.632Z,98062.66
2023-03-20T19:25:47.607Z,98061.84
2023-03-20T19:28:39.061Z,98064.59
2023-03-20T19:31:09.748Z,98067.63
2023-03-20T19:33:38.529Z,98073.25
2023-03-20T19:36:06.926Z,98067.91
2023-03-20T19:38:34.619Z,98076.34
2023-03-20T19:41:03.887Z,98068.38
2023-03-20T19:43:30.976Z,98066.59
2023-03-20T19:45:59.227Z,98063.00
2023-03-20T19:48:47.019Z,98061.69
2023-03-20T19:51:21.765Z,98060.88
2023-03-20T19:53:49.938Z,98059.72
2023-03-20T19:56:19.495Z,98052.59
2023-03-20T19:58:47.547Z,98062.91
2023-03-20T20:01:19.979Z,98055.28
2023-03-20T20:03:48.342Z,98057.66
2023-03-20T20:06:16.003Z,98068.94
2023-03-20T20:08:48.267Z,98069.91
2023-03-20T20:11:19.056Z,98065.66
2023-03-20T20:16:40.153Z,98066.25
2023-03-20T20:19:07.726Z,98071.47
2023-03-20T20:27:52.606Z,98069.69
2023-03-20T20:30:21.063Z,98064.69
2023-03-20T20:32:48.174Z,98060.91
2023-03-20T20:35:41.930Z,98061.13
2023-03-20T20:38:40.454Z,98052.25
2023-03-20T20:40:50.353Z,98055.91
2023-03-20T20:43:39.275Z,98055.19
2023-03-20T20:46:04.743Z,98054.97
2023-03-20T20:48:32.373Z,98058.75
2023-03-20T20:51:01.340Z,98049.97
2023-03-20T20:54:37.718Z,98045.09
2023-03-20T20:57:04.800Z,98050.09
2023-03-20T20:59:32.080Z,98054.00
2023-03-20T21:01:59.257Z,98060.41
2023-03-20T21:04:45.250Z,98057.13
2023-03-20T21:07:13.313Z,98051.91
2023-03-20T21:09:41.544Z,98051.41
2023-03-20T21:12:22.685Z,98054.72
2023-03-20T21:14:57.625Z,98057.78
2023-03-20T21:17:25.920Z,98052.44
2023-03-20T21:19:53.020Z,98040.97
2023-03-20T21:22:22.462Z,98043.81
2023-03-20T21:24:53.799Z,98047.34
2023-03-20T21:27:26.014Z,98038.56
2023-03-20T21:29:53.038Z,98038.47
2023-03-20T21:32:21.743Z,98043.34
2023-03-20T21:34:49.665Z,98053.28
2023-03-20T21:40:09.233Z,98033.13
2023-03-20T21:42:37.090Z,98032.78
2023-03-20T21:46:06.670Z,98037.75
2023-03-20T21:48:30.665Z,98038.50
2023-03-20T21:58:17.705Z,98012.94
2023-03-20T22:03:01.581Z,98028.50
2023-03-20T22:06:12.773Z,98023.88
2023-03-20T22:09:21.338Z,98023.03
2023-03-20T22:14:44.726Z,98015.81
2023-03-20T22:20:18.416Z,98015.00
2023-03-20T22:23:15.308Z,98011.44
2023-03-20T22:38:08.521Z,98008.69
2023-03-20T22:41:22.933Z,98008.91
2023-03-20T22:44:02.431Z,98003.81
2023-03-20T22:46:05.881Z,98012.88
2023-03-20T22:48:37.153Z,97996.34
2023-03-20T22:51:04.791Z,97994.00
2023-03-20T22:53:32.557Z,98004.91
2023-03-20T22:56:00.478Z,98007.25
2023-03-20T22:58:27.734Z,98002.66
2023-03-20T23:00:55.297Z,97996.34
2023-03-20T23:03:39.857Z,97992.53
2023-03-20T23:06:29.064Z,97999.75
2023-03-20T23:08:58.353Z,97999.19
2023-03-20T23:11:27.793Z,97994.22
2023-03-20T23:13:54.961Z,97986.50
2023-03-20T23:16:22.030Z,97987.78
2023-03-20T23:18:49.051Z,97985.88
2023-03-20T23:21:16.070Z,97994.09
2023-03-20T23:23:43.074Z,97984.97
2023-03-20T23:26:15.611Z,97985.56
2023-03-20T23:28:44.709Z,97975.34
2023-03-20T23:31:16.236Z,97972.72
2023-03-20T23:33:48.509Z,97981.38
2023-03-20T23:36:32.701Z,97977.34
2023-03-20T23:39:01.844Z,97971.16
2023-03-20T23:41:57.614Z,97965.38
2023-03-20T23:44:15.947Z,97967.03
2023-03-20T23:46:42.968Z,97971.13
2023-03-20T23:49:10.059Z,97965.34
2023-03-20T23:51:37.096Z,97966.66
2023-03-20T23:54:04.199Z,97967.88
2023-03-20T23:56:31.281Z,97965.47
2023-03-20T23:59:30.681Z,97964.38
